createdAt,value
2023-07-04T00:00:03.604Z,945.48
2023-07-04T00:00:15.642Z,945.64
2023-07-04T00:00:27.620Z,945.60
2023-07-04T00:00:39.602Z,945.63
2023-07-04T00:00:50.784Z,945.61
2023-07-04T00:01:02.638Z,945.59
2023-07-04T00:01:14.637Z,945.60
2023-07-04T00:01:26.673Z,945.64
2023-07-04T00:01:38.645Z,945.64
2023-07-04T00:01:49.754Z,945.66
2023-07-04T00:02:00.637Z,945.65
2023-07-04T00:02:12.722Z,945.66
2023-07-04T00:02:24.678Z,945.68
2023-07-04T00:02:36.631Z,945.65
2023-07-04T00:02:47.702Z,945.65
2023-07-04T00:02:59.647Z,945.68
2023-07-04T00:03:10.642Z,945.66
2023-07-04T00:03:21.643Z,945.70
2023-07-04T00:03:32.716Z,945.67
2023-07-04T00:03:44.680Z,945.63
2023-07-04T00:03:55.679Z,945.72
2023-07-04T00:04:07.648Z,945.67
2023-07-04T00:04:19.636Z,945.67
2023-07-04T00:04:31.655Z,945.72
2023-07-04T00:04:43.627Z,945.69
2023-07-04T00:04:55.615Z,945.69
2023-07-04T00:05:07.620Z,945.73
2023-07-04T00:05:19.626Z,945.76
2023-07-04T00:05:31.634Z,945.65
2023-07-04T00:05:43.656Z,945.69
2023-07-04T00:05:55.661Z,945.70
2023-07-04T00:06:07.657Z,945.73
2023-07-04T00:06:19.558Z,945.67
2023-07-04T00:06:30.658Z,945.73
2023-07-04T00:06:41.572Z,945.69
2023-07-04T00:06:52.633Z,945.71
2023-07-04T00:07:04.599Z,945.71
2023-07-04T00:07:16.584Z,945.77
2023-07-04T00:07:27.594Z,945.71
2023-07-04T00:07:39.604Z,945.72
2023-07-04T00:07:51.631Z,945.66
2023-07-04T00:08:03.616Z,945.68
2023-07-04T00:08:14.629Z,945.68
2023-07-04T00:08:26.595Z,945.73
2023-07-04T00:08:37.606Z,945.73
2023-07-04T00:08:48.689Z,945.69
2023-07-04T00:08:59.620Z,945.72
2023-07-04T00:09:11.612Z,945.74
2023-07-04T00:09:23.619Z,945.75
2023-07-04T00:09:35.630Z,945.77
2023-07-04T00:09:47.625Z,945.73
2023-07-04T00:09:59.610Z,945.73
2023-07-04T00:10:10.620Z,945.69
2023-07-04T00:10:22.605Z,945.72
2023-07-04T00:10:34.590Z,945.57
2023-07-04T00:10:45.620Z,945.77
2023-07-04T00:10:57.634Z,945.67
2023-07-04T00:11:09.643Z,945.77
2023-07-04T00:11:21.662Z,945.60
2023-07-04T00:11:33.647Z,945.71
2023-07-04T00:11:45.574Z,945.64
2023-07-04T00:11:56.562Z,945.72
2023-07-04T00:12:07.581Z,945.64
2023-07-04T00:12:18.610Z,945.76
2023-07-04T00:12:30.629Z,945.64
2023-07-04T00:12:42.631Z,945.74
2023-07-04T00:12:54.627Z,945.68
2023-07-04T00:13:05.609Z,945.63
2023-07-04T00:13:16.700Z,945.67
2023-07-04T00:13:28.704Z,945.70
2023-07-04T00:13:39.815Z,945.73
2023-07-04T00:13:50.676Z,945.68
2023-07-04T00:14:02.689Z,945.63
2023-07-04T00:14:14.660Z,945.64
2023-07-04T00:14:25.647Z,945.68
2023-07-04T00:14:37.589Z,945.68
2023-07-04T00:14:48.612Z,945.71
2023-07-04T00:14:59.618Z,945.72
2023-07-04T00:15:11.633Z,945.72
2023-07-04T00:15:23.604Z,945.67
2023-07-04T00:15:35.604Z,945.68
2023-07-04T00:15:46.615Z,945.70
2023-07-04T00:15:58.589Z,945.63
2023-07-04T00:16:09.678Z,945.67
2023-07-04T00:16:21.673Z,945.77
2023-07-04T00:16:33.623Z,945.64
2023-07-04T00:16:45.735Z,945.76
2023-07-04T00:16:56.711Z,945.73
2023-07-04T00:17:08.596Z,945.69
2023-07-04T00:17:19.634Z,945.68
2023-07-04T00:17:31.637Z,945.64
2023-07-04T00:17:43.619Z,945.75
2023-07-04T00:17:55.665Z,945.76
2023-07-04T00:18:06.617Z,945.66
2023-07-04T00:18:18.616Z,945.61
2023-07-04T00:18:30.614Z,945.70
2023-07-04T00:18:41.604Z,945.70
2023-07-04T00:18:53.619Z,945.65
2023-07-04T00:19:05.611Z,945.63
2023-07-04T00:19:17.607Z,945.66
2023-07-04T00:19:28.620Z,945.67
2023-07-04T00:19:40.595Z,945.70
2023-07-04T00:19:51.612Z,945.65
2023-07-04T00:20:03.602Z,945.68
2023-07-04T00:20:15.589Z,945.70
2023-07-04T00:20:26.603Z,945.65
2023-07-04T00:20:37.614Z,945.65
2023-07-04T00:20:49.705Z,945.71
2023-07-04T00:21:00.614Z,945.70
2023-07-04T00:21:12.605Z,945.70
2023-07-04T00:21:23.609Z,945.69
2023-07-04T00:21:35.613Z,945.68
2023-07-04T00:21:47.595Z,945.62
2023-07-04T00:21:58.599Z,945.62
2023-07-04T00:22:10.584Z,945.69
2023-07-04T00:22:21.595Z,945.66
2023-07-04T00:22:32.652Z,945.69
2023-07-04T00:22:44.661Z,945.67
2023-07-04T00:22:56.727Z,945.59
2023-07-04T00:23:08.620Z,945.62
2023-07-04T00:23:19.641Z,945.76
2023-07-04T00:23:31.618Z,945.63
2023-07-04T00:23:43.619Z,945.63
2023-07-04T00:23:55.596Z,945.68
2023-07-04T00:24:06.613Z,945.67
2023-07-04T00:24:18.605Z,945.66
2023-07-04T00:24:29.595Z,945.69
2023-07-04T00:24:40.599Z,945.75
2023-07-04T00:24:51.625Z,945.70
2023-07-04T00:25:03.634Z,945.63
2023-07-04T00:25:15.609Z,945.65
2023-07-04T00:25:27.590Z,945.65
2023-07-04T00:25:38.595Z,945.66
2023-07-04T00:25:49.636Z,945.68
2023-07-04T00:26:01.644Z,945.63
2023-07-04T00:26:13.614Z,945.78
2023-07-04T00:26:25.634Z,945.69
2023-07-04T00:26:37.612Z,945.75
2023-07-04T00:26:49.609Z,945.64
2023-07-04T00:27:01.590Z,945.66
2023-07-04T00:27:12.614Z,945.70
2023-07-04T00:27:24.601Z,945.71
2023-07-04T00:27:35.605Z,945.78
2023-07-04T00:27:46.605Z,945.64
2023-07-04T00:27:58.613Z,945.68
2023-07-04T00:28:10.602Z,945.69
2023-07-04T00:28:22.658Z,945.66
2023-07-04T00:28:33.585Z,945.69
2023-07-04T00:28:44.598Z,945.72
2023-07-04T00:28:56.592Z,945.69
2023-07-04T00:29:07.608Z,945.73
2023-07-04T00:29:18.617Z,945.68
2023-07-04T00:29:30.616Z,945.66
2023-07-04T00:29:41.626Z,945.65
2023-07-04T00:29:53.618Z,945.67
2023-07-04T00:30:05.597Z,945.69
2023-07-04T00:30:16.612Z,945.68
2023-07-04T00:30:28.623Z,945.67
2023-07-04T00:30:39.686Z,945.74
2023-07-04T00:30:50.763Z,945.75
2023-07-04T00:31:01.663Z,945.73
2023-07-04T00:31:12.621Z,945.73
2023-07-04T00:31:25.185Z,945.77
2023-07-04T00:31:35.633Z,945.73
2023-07-04T00:31:47.606Z,945.73
2023-07-04T00:31:59.586Z,945.76
2023-07-04T00:32:11.595Z,945.73
2023-07-04T00:32:23.634Z,945.75
2023-07-04T00:32:34.676Z,945.74
2023-07-04T00:32:46.689Z,945.71
2023-07-04T00:32:58.624Z,945.77
2023-07-04T00:33:09.564Z,945.72
2023-07-04T00:33:20.602Z,945.78
2023-07-04T00:33:31.600Z,945.71
2023-07-04T00:33:43.623Z,945.65
2023-07-04T00:33:55.597Z,945.73
2023-07-04T00:34:06.615Z,945.74
2023-07-04T00:34:18.582Z,945.70
2023-07-04T00:34:30.597Z,945.71
2023-07-04T00:34:42.621Z,945.71
2023-07-04T00:34:54.591Z,945.71
2023-07-04T00:35:05.611Z,945.76
2023-07-04T00:35:17.623Z,945.81
2023-07-04T00:35:29.633Z,945.72
2023-07-04T00:35:41.604Z,945.71
2023-07-04T00:35:53.580Z,945.79
2023-07-04T00:36:05.615Z,945.71
2023-07-04T00:36:17.954Z,945.66
2023-07-04T00:36:29.626Z,945.77
2023-07-04T00:36:41.632Z,945.70
2023-07-04T00:36:53.598Z,945.74
2023-07-04T00:37:04.609Z,945.77
2023-07-04T00:37:16.601Z,945.49
2023-07-04T00:37:28.612Z,945.70
2023-07-04T00:37:39.611Z,945.68
2023-07-04T00:37:51.613Z,945.73
2023-07-04T00:38:03.646Z,945.76
2023-07-04T00:38:15.618Z,945.67
2023-07-04T00:38:27.598Z,945.76
2023-07-04T00:38:39.596Z,945.69
2023-07-04T00:38:51.604Z,945.64
2023-07-04T00:39:02.612Z,945.68
2023-07-04T00:39:14.597Z,945.68
2023-07-04T00:39:25.615Z,945.72
2023-07-04T00:39:37.641Z,945.70
2023-07-04T00:39:49.634Z,945.79
2023-07-04T00:40:01.655Z,945.78
2023-07-04T00:40:13.554Z,945.78
2023-07-04T00:40:24.575Z,945.74
2023-07-04T00:40:35.586Z,945.74
2023-07-04T00:40:46.595Z,945.77
2023-07-04T00:40:57.600Z,945.76
2023-07-04T00:41:09.613Z,945.75
2023-07-04T00:41:21.634Z,945.80
2023-07-04T00:41:32.564Z,945.58
2023-07-04T00:41:43.587Z,945.66
2023-07-04T00:41:54.581Z,945.69
2023-07-04T00:42:05.624Z,945.70
2023-07-04T00:42:17.591Z,945.67
2023-07-04T00:42:29.585Z,945.74
2023-07-04T00:42:41.586Z,945.72
2023-07-04T00:42:53.590Z,945.84
2023-07-04T00:43:05.591Z,945.79
2023-07-04T00:43:17.644Z,945.75
2023-07-04T00:43:29.612Z,945.71
2023-07-04T00:43:41.638Z,945.76
2023-07-04T00:43:53.642Z,945.73
2023-07-04T00:44:05.612Z,945.73
2023-07-04T00:44:17.622Z,945.77
2023-07-04T00:44:29.607Z,945.75
2023-07-04T00:44:41.599Z,945.79
2023-07-04T00:44:53.592Z,945.79
2023-07-04T00:45:04.588Z,945.83
2023-07-04T00:45:16.581Z,945.81
2023-07-04T00:45:28.607Z,945.81
2023-07-04T00:45:40.606Z,945.80
2023-07-04T00:45:51.615Z,945.80
2023-07-04T00:46:03.630Z,945.81
2023-07-04T00:46:15.695Z,945.86
2023-07-04T00:46:27.696Z,945.80
2023-07-04T00:46:38.726Z,945.94
2023-07-04T00:46:49.739Z,945.80
2023-07-04T00:47:00.620Z,945.80
2023-07-04T00:47:11.717Z,945.81
2023-07-04T00:47:23.645Z,945.76
2023-07-04T00:47:35.691Z,945.84
2023-07-04T00:47:46.660Z,945.85
2023-07-04T00:47:57.601Z,945.83
2023-07-04T00:48:09.576Z,945.82
2023-07-04T00:48:20.576Z,945.74
2023-07-04T00:48:32.605Z,945.79
2023-07-04T00:48:44.611Z,945.80
2023-07-04T00:48:55.610Z,945.84
2023-07-04T00:49:07.588Z,945.82
2023-07-04T00:49:20.066Z,945.79
2023-07-04T00:49:31.588Z,945.84
2023-07-04T00:49:42.617Z,945.80
2023-07-04T00:49:54.603Z,945.79
2023-07-04T00:50:06.586Z,945.84
2023-07-04T00:50:17.608Z,945.89
2023-07-04T00:50:29.608Z,945.73
2023-07-04T00:50:40.615Z,945.75
2023-07-04T00:50:52.735Z,945.76
2023-07-04T00:51:04.584Z,945.75
2023-07-04T00:51:15.585Z,945.71
2023-07-04T00:51:26.598Z,945.77
2023-07-04T00:51:38.605Z,945.76
2023-07-04T00:51:50.608Z,945.81
2023-07-04T00:52:02.631Z,945.87
2023-07-04T00:52:14.618Z,945.80
2023-07-04T00:52:26.594Z,945.71
2023-07-04T00:52:37.613Z,945.75
2023-07-04T00:52:49.595Z,945.77
2023-07-04T00:53:01.591Z,945.78
2023-07-04T00:53:13.584Z,945.75
2023-07-04T00:53:24.582Z,945.76
2023-07-04T00:53:35.609Z,945.76
2023-07-04T00:53:47.612Z,945.79
2023-07-04T00:53:59.636Z,945.80
2023-07-04T00:54:11.624Z,945.70
2023-07-04T00:54:23.592Z,945.73
2023-07-04T00:54:35.598Z,945.73
2023-07-04T00:54:46.627Z,945.70
2023-07-04T00:54:58.766Z,945.74
2023-07-04T00:55:10.625Z,945.69
2023-07-04T00:55:22.601Z,945.76
2023-07-04T00:55:34.607Z,945.65
2023-07-04T00:55:45.612Z,945.69
2023-07-04T00:55:57.582Z,945.80
2023-07-04T00:56:09.596Z,945.81
2023-07-04T00:56:21.588Z,945.71
2023-07-04T00:56:32.604Z,945.69
2023-07-04T00:56:44.600Z,945.77
2023-07-04T00:56:56.577Z,945.77
2023-07-04T00:57:08.206Z,945.76
2023-07-04T00:57:19.625Z,945.81
2023-07-04T00:57:31.588Z,945.73
2023-07-04T00:57:43.594Z,945.72
2023-07-04T00:57:54.588Z,945.73
2023-07-04T00:58:05.649Z,945.70
2023-07-04T00:58:16.688Z,945.72
2023-07-04T00:58:28.596Z,945.73
2023-07-04T00:58:40.599Z,945.77
2023-07-04T00:58:52.592Z,945.77
2023-07-04T00:59:03.604Z,945.76
2023-07-04T00:59:15.590Z,945.76
2023-07-04T00:59:26.631Z,945.82
2023-07-04T00:59:38.633Z,945.77
2023-07-04T00:59:50.627Z,945.73
2023-07-04T01:00:02.611Z,945.70
2023-07-04T01:00:13.613Z,945.69
2023-07-04T01:00:25.585Z,945.74
2023-07-04T01:00:37.574Z,945.73
2023-07-04T01:00:48.565Z,945.74
2023-07-04T01:00:59.598Z,945.75
2023-07-04T01:01:11.594Z,945.69
2023-07-04T01:01:23.675Z,945.72
2023-07-04T01:01:34.614Z,945.73
2023-07-04T01:01:46.631Z,945.71
2023-07-04T01:01:58.793Z,945.79
2023-07-04T01:02:09.667Z,945.69
2023-07-04T01:02:21.586Z,945.72
2023-07-04T01:02:33.656Z,945.85
2023-07-04T01:02:44.633Z,945.52
2023-07-04T01:02:56.666Z,945.81
2023-07-04T01:03:08.701Z,945.69
2023-07-04T01:03:20.695Z,945.73
2023-07-04T01:03:32.652Z,945.72
2023-07-04T01:03:43.618Z,945.73
2023-07-04T01:03:55.693Z,945.70
2023-07-04T01:04:06.570Z,945.78
2023-07-04T01:04:17.564Z,945.68
2023-07-04T01:04:28.602Z,945.72
2023-07-04T01:04:39.603Z,945.69
2023-07-04T01:04:50.606Z,945.70
2023-07-04T01:05:02.624Z,945.72
2023-07-04T01:05:14.593Z,945.72
2023-07-04T01:05:26.592Z,945.70
2023-07-04T01:05:37.641Z,945.71
2023-07-04T01:05:49.616Z,945.79
2023-07-04T01:06:01.609Z,945.64
2023-07-04T01:06:13.604Z,945.83
2023-07-04T01:06:25.598Z,945.73
2023-07-04T01:06:37.601Z,945.75
2023-07-04T01:06:49.597Z,945.71
2023-07-04T01:07:01.601Z,945.68
2023-07-04T01:07:13.596Z,945.70
2023-07-04T01:07:25.592Z,945.73
2023-07-04T01:07:36.616Z,945.71
2023-07-04T01:07:48.607Z,945.70
2023-07-04T01:07:59.606Z,945.70
2023-07-04T01:08:11.600Z,945.68
2023-07-04T01:08:23.608Z,945.70
2023-07-04T01:08:35.587Z,945.70
2023-07-04T01:08:46.602Z,945.71
2023-07-04T01:08:57.600Z,945.74
2023-07-04T01:09:09.630Z,945.74
2023-07-04T01:09:21.616Z,945.74
2023-07-04T01:09:33.619Z,945.73
2023-07-04T01:09:45.662Z,945.82
2023-07-04T01:09:56.618Z,945.73
2023-07-04T01:10:08.571Z,945.72
2023-07-04T01:10:19.610Z,945.73
2023-07-04T01:10:31.600Z,945.77
2023-07-04T01:10:43.665Z,945.71
2023-07-04T01:10:55.786Z,945.76
2023-07-04T01:11:07.598Z,945.72
2023-07-04T01:11:19.575Z,945.74
2023-07-04T01:11:30.622Z,945.78
2023-07-04T01:11:41.594Z,945.67
2023-07-04T01:11:52.591Z,945.77
2023-07-04T01:12:03.591Z,945.77
2023-07-04T01:12:15.588Z,945.78
2023-07-04T01:12:26.617Z,945.73
2023-07-04T01:12:38.607Z,945.70
2023-07-04T01:12:50.603Z,945.73
2023-07-04T01:13:01.640Z,945.76
2023-07-04T01:13:13.606Z,945.75
2023-07-04T01:13:25.630Z,945.68
2023-07-04T01:13:37.689Z,945.77
2023-07-04T01:13:48.643Z,945.74
2023-07-04T01:13:59.624Z,945.82
2023-07-04T01:14:10.550Z,945.75
2023-07-04T01:14:21.563Z,945.72
2023-07-04T01:14:32.604Z,945.76
2023-07-04T01:14:44.606Z,945.69
2023-07-04T01:14:56.577Z,945.73
2023-07-04T01:15:07.581Z,945.76
2023-07-04T01:15:18.617Z,945.74
2023-07-04T01:15:30.606Z,945.76
2023-07-04T01:15:41.607Z,945.71
2023-07-04T01:15:52.629Z,945.74
2023-07-04T01:16:04.642Z,945.78
2023-07-04T01:16:16.651Z,945.69
2023-07-04T01:16:28.616Z,945.72
2023-07-04T01:16:39.687Z,945.72
2023-07-04T01:16:51.542Z,945.75
2023-07-04T01:17:02.613Z,945.76
2023-07-04T01:17:14.592Z,945.76
2023-07-04T01:17:25.623Z,945.85
2023-07-04T01:17:37.637Z,945.72
2023-07-04T01:17:49.717Z,945.79
2023-07-04T01:18:01.684Z,945.76
2023-07-04T01:18:13.588Z,945.78
2023-07-04T01:18:25.593Z,945.79
2023-07-04T01:18:37.607Z,945.65
2023-07-04T01:18:49.594Z,945.75
2023-07-04T01:19:01.594Z,945.72
2023-07-04T01:19:13.572Z,945.67
2023-07-04T01:19:24.637Z,945.72
2023-07-04T01:19:36.625Z,945.75
2023-07-04T01:19:48.600Z,945.79
2023-07-04T01:20:00.586Z,945.69
2023-07-04T01:20:12.592Z,945.74
2023-07-04T01:20:23.583Z,945.74
2023-07-04T01:20:35.603Z,945.76
2023-07-04T01:20:47.619Z,945.75
2023-07-04T01:20:59.608Z,945.78
2023-07-04T01:21:11.586Z,945.73
2023-07-04T01:21:23.606Z,945.76
2023-07-04T01:21:35.581Z,945.75
2023-07-04T01:21:46.590Z,945.76
2023-07-04T01:21:58.569Z,945.82
2023-07-04T01:22:09.583Z,945.74
2023-07-04T01:22:20.616Z,945.78
2023-07-04T01:22:32.595Z,945.85
2023-07-04T01:22:43.586Z,945.80
2023-07-04T01:22:54.599Z,945.79
2023-07-04T01:23:06.607Z,945.67
2023-07-04T01:23:18.588Z,945.73
2023-07-04T01:23:29.581Z,945.77
2023-07-04T01:23:40.589Z,945.73
2023-07-04T01:23:51.587Z,945.70
2023-07-04T01:24:02.587Z,945.77
2023-07-04T01:24:14.603Z,945.81
2023-07-04T01:24:26.584Z,945.76
2023-07-04T01:24:38.597Z,945.78
2023-07-04T01:24:50.580Z,945.79
2023-07-04T01:25:01.606Z,945.81
2023-07-04T01:25:13.630Z,945.84
2023-07-04T01:25:25.603Z,945.78
2023-07-04T01:25:36.662Z,945.79
2023-07-04T01:25:47.592Z,945.79
2023-07-04T01:25:59.572Z,945.74
2023-07-04T01:26:10.579Z,945.78
2023-07-04T01:26:21.606Z,945.84
2023-07-04T01:26:33.615Z,945.72
2023-07-04T01:26:45.597Z,945.76
2023-07-04T01:26:57.596Z,945.72
2023-07-04T01:27:09.589Z,945.75
2023-07-04T01:27:20.552Z,945.82
2023-07-04T01:27:31.608Z,945.79
2023-07-04T01:27:42.672Z,945.79
2023-07-04T01:27:54.622Z,945.74
2023-07-04T01:28:05.603Z,945.72
2023-07-04T01:28:16.620Z,945.75
2023-07-04T01:28:27.575Z,945.81
2023-07-04T01:28:38.603Z,945.81
2023-07-04T01:28:50.581Z,945.68
2023-07-04T01:29:01.586Z,945.70
2023-07-04T01:29:12.622Z,945.76
2023-07-04T01:29:24.594Z,945.84
2023-07-04T01:29:36.588Z,945.65
2023-07-04T01:29:47.586Z,945.76
2023-07-04T01:30:01.221Z,945.85
2023-07-04T01:30:13.629Z,945.78
2023-07-04T01:30:21.536Z,945.81
2023-07-04T01:30:32.645Z,945.84
2023-07-04T01:30:44.664Z,945.76
2023-07-04T01:30:56.633Z,945.79
2023-07-04T01:31:08.661Z,945.84
2023-07-04T01:31:20.646Z,945.78
2023-07-04T01:31:32.576Z,945.76
2023-07-04T01:31:43.631Z,945.78
2023-07-04T01:31:56.388Z,945.71
2023-07-04T01:32:06.687Z,945.75
2023-07-04T01:32:17.595Z,945.83
2023-07-04T01:32:28.616Z,945.82
2023-07-04T01:32:40.658Z,945.81
2023-07-04T01:32:51.650Z,945.82
2023-07-04T01:33:03.642Z,945.71
2023-07-04T01:33:14.609Z,945.75
2023-07-04T01:33:26.589Z,945.80
2023-07-04T01:33:37.608Z,945.81
2023-07-04T01:33:49.592Z,945.90
2023-07-04T01:34:00.593Z,945.61
2023-07-04T01:34:11.607Z,945.87
2023-07-04T01:34:23.583Z,945.79
2023-07-04T01:34:35.593Z,945.82
2023-07-04T01:34:47.593Z,945.81
2023-07-04T01:34:58.610Z,945.83
2023-07-04T01:35:10.591Z,945.79
2023-07-04T01:35:22.605Z,945.81
2023-07-04T01:35:34.599Z,945.88
2023-07-04T01:35:46.607Z,945.85
2023-07-04T01:35:58.601Z,945.81
2023-07-04T01:36:10.617Z,945.84
2023-07-04T01:36:22.592Z,945.82
2023-07-04T01:36:34.601Z,945.85
2023-07-04T01:36:46.605Z,945.84
2023-07-04T01:36:58.600Z,945.80
2023-07-04T01:37:10.586Z,945.91
2023-07-04T01:37:22.613Z,945.85
2023-07-04T01:37:34.584Z,945.90
2023-07-04T01:37:45.605Z,945.73
2023-07-04T01:37:56.619Z,945.80
2023-07-04T01:38:08.609Z,945.74
2023-07-04T01:38:20.574Z,945.84
2023-07-04T01:38:31.560Z,945.86
2023-07-04T01:38:42.544Z,945.82
2023-07-04T01:38:53.572Z,945.84
2023-07-04T01:39:04.662Z,945.85
2023-07-04T01:39:16.926Z,945.87
2023-07-04T01:39:28.626Z,945.83
2023-07-04T01:39:40.653Z,945.85
2023-07-04T01:39:52.626Z,945.82
2023-07-04T01:40:04.674Z,945.82
2023-07-04T01:40:16.561Z,945.89
2023-07-04T01:40:27.548Z,945.72
2023-07-04T01:40:38.588Z,945.79
2023-07-04T01:40:49.607Z,945.82
2023-07-04T01:41:00.575Z,945.86
2023-07-04T01:41:12.578Z,945.85
2023-07-04T01:41:24.581Z,945.84
2023-07-04T01:41:35.589Z,945.88
2023-07-04T01:41:46.739Z,945.76
2023-07-04T01:41:58.589Z,945.78
2023-07-04T01:42:10.590Z,945.88
2023-07-04T01:42:21.607Z,945.88
2023-07-04T01:42:33.589Z,945.85
2023-07-04T01:42:44.599Z,945.87
2023-07-04T01:42:55.603Z,945.85
2023-07-04T01:43:07.583Z,945.87
2023-07-04T01:43:18.617Z,945.87
2023-07-04T01:43:30.603Z,945.85
2023-07-04T01:43:41.596Z,945.90
2023-07-04T01:43:53.616Z,945.90
2023-07-04T01:44:05.608Z,945.86
2023-07-04T01:44:16.611Z,945.91
2023-07-04T01:44:28.593Z,945.89
2023-07-04T01:44:40.582Z,945.79
2023-07-04T01:44:51.582Z,945.85
2023-07-04T01:45:02.608Z,945.88
2023-07-04T01:45:13.609Z,945.90
2023-07-04T01:45:25.589Z,945.86
2023-07-04T01:45:37.666Z,945.87
2023-07-04T01:45:48.650Z,945.86
2023-07-04T01:46:00.626Z,945.86
2023-07-04T01:46:12.707Z,945.85
2023-07-04T01:46:24.636Z,945.88
2023-07-04T01:46:35.579Z,945.86
2023-07-04T01:46:46.587Z,945.84
2023-07-04T01:46:57.603Z,945.89
2023-07-04T01:47:09.598Z,945.87
2023-07-04T01:47:21.733Z,945.92
2023-07-04T01:47:33.662Z,945.81
2023-07-04T01:47:44.615Z,945.85
2023-07-04T01:47:56.629Z,945.83
2023-07-04T01:48:08.642Z,945.89
2023-07-04T01:48:20.607Z,945.89
2023-07-04T01:48:32.615Z,945.83
2023-07-04T01:48:44.597Z,945.88
2023-07-04T01:48:55.608Z,945.88
2023-07-04T01:49:06.595Z,945.89
2023-07-04T01:49:18.621Z,945.89
2023-07-04T01:49:30.631Z,945.89
2023-07-04T01:49:42.637Z,945.90
2023-07-04T01:49:54.618Z,945.94
2023-07-04T01:50:06.594Z,945.92
2023-07-04T01:50:18.592Z,945.87
2023-07-04T01:50:29.600Z,945.88
2023-07-04T01:50:41.605Z,945.86
2023-07-04T01:50:52.909Z,945.87
2023-07-04T01:51:03.622Z,945.87
2023-07-04T01:51:15.627Z,945.92
2023-07-04T01:51:27.634Z,945.88
2023-07-04T01:51:39.634Z,945.88
2023-07-04T01:51:51.608Z,945.87
2023-07-04T01:52:03.596Z,945.95
2023-07-04T01:52:15.593Z,945.89
2023-07-04T01:52:27.608Z,945.91
2023-07-04T01:52:39.607Z,945.89
2023-07-04T01:52:50.598Z,945.85
2023-07-04T01:53:01.604Z,945.85
2023-07-04T01:53:13.612Z,945.87
2023-07-04T01:53:25.598Z,945.86
2023-07-04T01:53:36.609Z,945.89
2023-07-04T01:53:48.599Z,945.89
2023-07-04T01:54:00.580Z,945.94
2023-07-04T01:54:12.588Z,945.88
2023-07-04T01:54:23.604Z,945.86
2023-07-04T01:54:34.600Z,945.83
2023-07-04T01:54:46.599Z,945.88
2023-07-04T01:54:58.609Z,945.82
2023-07-04T01:55:09.603Z,945.85
2023-07-04T01:55:20.603Z,945.85
2023-07-04T01:55:32.619Z,945.89
2023-07-04T01:55:44.612Z,945.85
2023-07-04T01:55:56.604Z,945.87
2023-07-04T01:56:07.607Z,945.87
2023-07-04T01:56:19.595Z,945.86
2023-07-04T01:56:31.588Z,945.84
2023-07-04T01:56:43.587Z,945.81
2023-07-04T01:56:54.606Z,945.85
2023-07-04T01:57:05.601Z,945.87
2023-07-04T01:57:16.595Z,945.83
2023-07-04T01:57:27.611Z,945.79
2023-07-04T01:57:39.608Z,945.85
2023-07-04T01:57:51.595Z,945.86
2023-07-04T01:58:02.582Z,945.88
2023-07-04T01:58:13.611Z,945.61
2023-07-04T01:58:25.612Z,945.83
2023-07-04T01:58:36.620Z,945.84
2023-07-04T01:58:48.596Z,945.83
2023-07-04T01:58:59.604Z,945.86
2023-07-04T01:59:10.614Z,945.86
2023-07-04T01:59:22.607Z,945.77
2023-07-04T01:59:34.613Z,945.80
2023-07-04T01:59:46.609Z,945.83
2023-07-04T01:59:58.648Z,945.81
2023-07-04T02:00:10.694Z,945.83
2023-07-04T02:00:21.602Z,945.83
2023-07-04T02:00:33.586Z,945.82
2023-07-04T02:00:45.593Z,945.78
2023-07-04T02:00:57.657Z,945.86
2023-07-04T02:01:08.635Z,945.87
2023-07-04T02:01:20.643Z,945.78
2023-07-04T02:01:31.628Z,945.81
2023-07-04T02:01:43.711Z,945.83
2023-07-04T02:01:54.596Z,945.84
2023-07-04T02:02:06.595Z,945.85
2023-07-04T02:02:17.623Z,945.84
2023-07-04T02:02:29.635Z,945.89
2023-07-04T02:02:40.622Z,945.79
2023-07-04T02:02:51.699Z,945.85
2023-07-04T02:03:02.684Z,945.88
2023-07-04T02:03:13.711Z,945.80
2023-07-04T02:03:25.847Z,945.81
2023-07-04T02:03:36.629Z,945.81
2023-07-04T02:03:47.647Z,945.83
2023-07-04T02:03:58.629Z,945.86
2023-07-04T02:04:10.604Z,945.83
2023-07-04T02:04:22.606Z,945.80
2023-07-04T02:04:33.632Z,945.80
2023-07-04T02:04:45.629Z,945.87
2023-07-04T02:04:57.627Z,945.82
2023-07-04T02:05:09.613Z,945.79
2023-07-04T02:05:21.593Z,945.88
2023-07-04T02:05:32.591Z,945.84
2023-07-04T02:05:44.619Z,945.83
2023-07-04T02:05:56.616Z,945.78
2023-07-04T02:06:08.594Z,945.87
2023-07-04T02:06:20.596Z,945.76
2023-07-04T02:06:31.585Z,945.80
2023-07-04T02:06:42.585Z,945.81
2023-07-04T02:06:53.602Z,945.83
2023-07-04T02:07:05.607Z,945.80
2023-07-04T02:07:17.590Z,945.79
2023-07-04T02:07:29.626Z,945.83
2023-07-04T02:07:41.626Z,945.88
2023-07-04T02:07:53.592Z,945.81
2023-07-04T02:08:05.580Z,945.79
2023-07-04T02:08:16.595Z,945.82
2023-07-04T02:08:27.591Z,945.80
2023-07-04T02:08:38.624Z,945.80
2023-07-04T02:08:50.615Z,945.83
2023-07-04T02:09:02.588Z,945.84
2023-07-04T02:09:14.595Z,945.86
2023-07-04T02:09:25.610Z,945.88
2023-07-04T02:09:36.609Z,945.83
2023-07-04T02:09:48.606Z,945.84
2023-07-04T02:10:00.607Z,945.80
2023-07-04T02:10:12.597Z,945.83
2023-07-04T02:10:24.589Z,945.86
2023-07-04T02:10:35.606Z,945.80
2023-07-04T02:10:47.587Z,945.89
2023-07-04T02:10:59.606Z,945.79
2023-07-04T02:11:11.622Z,945.72
2023-07-04T02:11:23.582Z,945.79
2023-07-04T02:11:34.611Z,945.81
2023-07-04T02:11:45.606Z,945.92
2023-07-04T02:11:57.602Z,945.86
2023-07-04T02:12:08.615Z,945.79
2023-07-04T02:12:20.610Z,945.87
2023-07-04T02:12:32.605Z,945.76
2023-07-04T02:12:47.718Z,945.88
2023-07-04T02:12:55.610Z,945.86
2023-07-04T02:13:06.623Z,945.84
2023-07-04T02:13:18.643Z,945.85
2023-07-04T02:13:29.620Z,945.80
2023-07-04T02:13:41.636Z,945.83
2023-07-04T02:13:53.628Z,945.84
2023-07-04T02:14:05.595Z,945.89
2023-07-04T02:14:16.615Z,945.88
2023-07-04T02:14:27.621Z,945.88
2023-07-04T02:14:39.595Z,945.88
2023-07-04T02:14:50.599Z,945.81
2023-07-04T02:15:01.639Z,945.88
2023-07-04T02:15:12.673Z,945.85
2023-07-04T02:15:24.645Z,945.86
2023-07-04T02:15:35.640Z,945.87
2023-07-04T02:15:47.676Z,945.91
2023-07-04T02:15:59.610Z,945.83
2023-07-04T02:16:11.669Z,945.87
2023-07-04T02:16:23.644Z,945.86
2023-07-04T02:16:34.716Z,945.89
2023-07-04T02:16:45.617Z,945.97
2023-07-04T02:16:56.632Z,945.92
2023-07-04T02:17:08.637Z,945.90
2023-07-04T02:17:20.750Z,945.92
2023-07-04T02:17:32.610Z,945.85
2023-07-04T02:17:44.637Z,945.92
2023-07-04T02:17:56.648Z,945.90
2023-07-04T02:18:07.644Z,945.92
2023-07-04T02:18:19.617Z,945.93
2023-07-04T02:18:31.586Z,945.87
2023-07-04T02:18:42.626Z,945.83
2023-07-04T02:18:56.870Z,945.90
2023-07-04T02:19:06.634Z,945.88
2023-07-04T02:19:18.602Z,945.92
2023-07-04T02:19:30.626Z,945.94
2023-07-04T02:19:42.606Z,945.88
2023-07-04T02:19:53.620Z,945.92
2023-07-04T02:20:05.602Z,945.81
2023-07-04T02:20:17.594Z,945.86
2023-07-04T02:20:28.610Z,945.86
2023-07-04T02:20:40.633Z,945.75
2023-07-04T02:20:52.806Z,945.80
2023-07-04T02:21:03.555Z,945.86
2023-07-04T02:21:15.620Z,945.83
2023-07-04T02:21:26.611Z,945.90
2023-07-04T02:21:38.588Z,945.92
2023-07-04T02:21:49.600Z,945.89
2023-07-04T02:22:01.598Z,945.92
2023-07-04T02:22:13.610Z,945.93
2023-07-04T02:22:24.616Z,945.90
2023-07-04T02:22:36.609Z,945.88
2023-07-04T02:22:48.590Z,945.89
2023-07-04T02:23:00.632Z,945.92
2023-07-04T02:23:11.592Z,945.92
2023-07-04T02:23:22.597Z,945.93
2023-07-04T02:23:34.610Z,945.91
2023-07-04T02:23:46.618Z,945.92
2023-07-04T02:23:57.563Z,945.88
2023-07-04T02:24:08.600Z,945.92
2023-07-04T02:24:19.605Z,945.86
2023-07-04T02:24:30.601Z,945.97
2023-07-04T02:24:41.610Z,945.94
2023-07-04T02:24:52.610Z,945.91